sensor_id;sensor_type;location;lat;lon;timestamp;temperature;humidity
23124;DHT22;11731;48.592;8.858;2023-07-31T00:01:47;17.30;99.90
23124;DHT22;11731;48.592;8.858;2023-07-31T00:04:15;17.40;99.90
23124;DHT22;11731;48.592;8.858;2023-07-31T00:06:42;17.40;99.90
23124;DHT22;11731;48.592;8.858;2023-07-31T00:09:11;17.50;99.90
23124;DHT22;11731;48.592;8.858;2023-07-31T00:11:38;17.20;99.90
23124;DHT22;11731;48.592;8.858;2023-07-31T00:14:05;17.10;99.90
23124;DHT22;11731;48.592;8.858;2023-07-31T00:16:31;17.20;99.90
23124;DHT22;11731;48.592;8.858;2023-07-31T00:18:58;17.20;99.90
23124;DHT22;11731;48.592;8.858;2023-07-31T00:21:26;17.20;99.90
23124;DHT22;11731;48.592;8.858;2023-07-31T00:23:53;17.10;99.90
23124;DHT22;11731;48.592;8.858;2023-07-31T00:26:20;17.10;99.90
23124;DHT22;11731;48.592;8.858;2023-07-31T00:28:47;17.00;99.90
23124;DHT22;11731;48.592;8.858;2023-07-31T00:31:14;16.90;99.90
23124;DHT22;11731;48.592;8.858;2023-07-31T00:33:41;17.00;99.90
23124;DHT22;11731;48.592;8.858;2023-07-31T00:36:07;16.90;99.90
23124;DHT22;11731;48.592;8.858;2023-07-31T00:38:36;16.80;99.90
23124;DHT22;11731;48.592;8.858;2023-07-31T00:41:02;16.70;99.90
23124;DHT22;11731;48.592;8.858;2023-07-31T00:43:30;16.60;99.90
23124;DHT22;11731;48.592;8.858;2023-07-31T00:45:56;16.60;99.90
23124;DHT22;11731;48.592;8.858;2023-07-31T00:48:23;16.50;99.90
23124;DHT22;11731;48.592;8.858;2023-07-31T00:50:50;16.50;99.90
23124;DHT22;11731;48.592;8.858;2023-07-31T00:53:17;16.40;99.90
23124;DHT22;11731;48.592;8.858;2023-07-31T00:55:46;16.50;99.90
23124;DHT22;11731;48.592;8.858;2023-07-31T00:58:12;16.40;99.90
23124;DHT22;11731;48.592;8.858;2023-07-31T01:00:39;16.30;99.90
23124;DHT22;11731;48.592;8.858;2023-07-31T01:03:06;16.20;99.90
23124;DHT22;11731;48.592;8.858;2023-07-31T01:05:39;15.70;99.90
23124;DHT22;11731;48.592;8.858;2023-07-31T01:08:12;15.60;99.90
23124;DHT22;11731;48.592;8.858;2023-07-31T01:10:49;15.50;99.90
23124;DHT22;11731;48.592;8.858;2023-07-31T01:13:18;15.50;99.90
23124;DHT22;11731;48.592;8.858;2023-07-31T01:15:44;15.40;99.90
23124;DHT22;11731;48.592;8.858;2023-07-31T01:18:25;15.40;99.90
23124;DHT22;11731;48.592;8.858;2023-07-31T01:21:11;15.20;99.90
23124;DHT22;11731;48.592;8.858;2023-07-31T01:23:51;15.00;99.90
23124;DHT22;11731;48.592;8.858;2023-07-31T01:26:27;14.90;99.90
23124;DHT22;11731;48.592;8.858;2023-07-31T01:28:58;15.00;99.90
23124;DHT22;11731;48.592;8.858;2023-07-31T01:31:26;15.10;99.90
23124;DHT22;11731;48.592;8.858;2023-07-31T01:33:58;15.20;99.90
23124;DHT22;11731;48.592;8.858;2023-07-31T01:36:26;14.90;99.90
23124;DHT22;11731;48.592;8.858;2023-07-31T01:38:58;15.00;99.90
23124;DHT22;11731;48.592;8.858;2023-07-31T01:41:26;15.00;99.90
23124;DHT22;11731;48.592;8.858;2023-07-31T01:43:52;15.30;99.90
23124;DHT22;11731;48.592;8.858;2023-07-31T01:46:19;15.50;99.90
23124;DHT22;11731;48.592;8.858;2023-07-31T01:48:46;15.70;99.90
23124;DHT22;11731;48.592;8.858;2023-07-31T01:51:13;15.70;99.90
23124;DHT22;11731;48.592;8.858;2023-07-31T01:53:40;15.70;99.90
23124;DHT22;11731;48.592;8.858;2023-07-31T01:56:06;15.60;99.90
23124;DHT22;11731;48.592;8.858;2023-07-31T01:58:34;15.50;99.90
23124;DHT22;11731;48.592;8.858;2023-07-31T02:01:03;15.50;99.90
23124;DHT22;11731;48.592;8.858;2023-07-31T02:03:37;15.60;99.90
23124;DHT22;11731;48.592;8.858;2023-07-31T02:06:04;15.60;99.90
23124;DHT22;11731;48.592;8.858;2023-07-31T02:08:31;15.10;99.90
23124;DHT22;11731;48.592;8.858;2023-07-31T02:10:58;15.20;99.90
23124;DHT22;11731;48.592;8.858;2023-07-31T02:13:25;15.40;99.90
23124;DHT22;11731;48.592;8.858;2023-07-31T02:15:53;15.50;99.90
23124;DHT22;11731;48.592;8.858;2023-07-31T02:18:20;15.60;99.90
23124;DHT22;11731;48.592;8.858;2023-07-31T02:20:49;15.60;99.90
23124;DHT22;11731;48.592;8.858;2023-07-31T02:23:16;15.60;99.90
23124;DHT22;11731;48.592;8.858;2023-07-31T02:25:43;15.60;99.90
23124;DHT22;11731;48.592;8.858;2023-07-31T02:28:10;15.50;99.90
23124;DHT22;11731;48.592;8.858;2023-07-31T02:30:36;15.60;99.90
23124;DHT22;11731;48.592;8.858;2023-07-31T02:33:05;15.70;99.90
23124;DHT22;11731;48.592;8.858;2023-07-31T02:35:32;15.70;99.90
23124;DHT22;11731;48.592;8.858;2023-07-31T02:37:59;15.70;99.90
23124;DHT22;11731;48.592;8.858;2023-07-31T02:40:25;15.70;99.90
23124;DHT22;11731;48.592;8.858;2023-07-31T02:42:52;15.70;99.90
23124;DHT22;11731;48.592;8.858;2023-07-31T02:45:19;15.80;99.90
23124;DHT22;11731;48.592;8.858;2023-07-31T02:47:46;15.40;99.90
23124;DHT22;11731;48.592;8.858;2023-07-31T02:50:14;15.30;99.90
23124;DHT22;11731;48.592;8.858;2023-07-31T02:52:40;15.20;99.90
23124;DHT22;11731;48.592;8.858;2023-07-31T02:55:07;15.20;99.90
23124;DHT22;11731;48.592;8.858;2023-07-31T02:57:34;15.40;99.90
23124;DHT22;11731;48.592;8.858;2023-07-31T03:00:01;15.30;99.90
23124;DHT22;11731;48.592;8.858;2023-07-31T03:02:31;15.30;99.90
23124;DHT22;11731;48.592;8.858;2023-07-31T03:04:58;15.40;99.90
23124;DHT22;11731;48.592;8.858;2023-07-31T03:07:26;15.30;99.90
23124;DHT22;11731;48.592;8.858;2023-07-31T03:09:54;15.00;99.90
23124;DHT22;11731;48.592;8.858;2023-07-31T03:12:20;15.20;99.90
23124;DHT22;11731;48.592;8.858;2023-07-31T03:14:47;15.40;99.90
23124;DHT22;11731;48.592;8.858;2023-07-31T03:17:15;15.40;99.90
23124;DHT22;11731;48.592;8.858;2023-07-31T03:19:42;15.50;99.90
23124;DHT22;11731;48.592;8.858;2023-07-31T03:22:08;15.70;99.90
23124;DHT22;11731;48.592;8.858;2023-07-31T03:24:37;15.80;99.90
23124;DHT22;11731;48.592;8.858;2023-07-31T03:27:04;15.80;99.90
23124;DHT22;11731;48.592;8.858;2023-07-31T03:29:31;15.80;99.90
23124;DHT22;11731;48.592;8.858;2023-07-31T03:31:58;15.80;99.90
23124;DHT22;11731;48.592;8.858;2023-07-31T03:34:25;15.70;99.90
23124;DHT22;11731;48.592;8.858;2023-07-31T03:36:52;15.60;99.90
23124;DHT22;11731;48.592;8.858;2023-07-31T03:39:19;15.70;99.90
23124;DHT22;11731;48.592;8.858;2023-07-31T03:41:47;15.70;99.90
23124;DHT22;11731;48.592;8.858;2023-07-31T03:44:14;15.60;99.90
23124;DHT22;11731;48.592;8.858;2023-07-31T03:46:41;15.50;99.90
23124;DHT22;11731;48.592;8.858;2023-07-31T03:49:08;15.50;99.90
23124;DHT22;11731;48.592;8.858;2023-07-31T03:51:34;15.60;99.90
23124;DHT22;11731;48.592;8.858;2023-07-31T03:54:01;15.60;99.90
23124;DHT22;11731;48.592;8.858;2023-07-31T03:56:28;15.90;99.90
23124;DHT22;11731;48.592;8.858;2023-07-31T03:58:56;16.00;99.90
23124;DHT22;11731;48.592;8.858;2023-07-31T04:01:23;16.20;99.90
23124;DHT22;11731;48.592;8.858;2023-07-31T04:03:50;16.20;99.90
23124;DHT22;11731;48.592;8.858;2023-07-31T04:06:17;16.30;99.90
23124;DHT22;11731;48.592;8.858;2023-07-31T04:08:44;16.30;99.90
23124;DHT22;11731;48.592;8.858;2023-07-31T04:11:11;16.30;99.90
23124;DHT22;11731;48.592;8.858;2023-07-31T04:13:38;16.30;99.90
23124;DHT22;11731;48.592;8.858;2023-07-31T04:16:06;16.20;99.90
23124;DHT22;11731;48.592;8.858;2023-07-31T04:18:33;16.10;99.90
23124;DHT22;11731;48.592;8.858;2023-07-31T04:21:00;16.20;99.90
23124;DHT22;11731;48.592;8.858;2023-07-31T04:23:28;16.20;99.90
23124;DHT22;11731;48.592;8.858;2023-07-31T04:25:54;16.10;99.90
23124;DHT22;11731;48.592;8.858;2023-07-31T04:28:21;16.10;99.90
23124;DHT22;11731;48.592;8.858;2023-07-31T04:30:50;16.10;99.90
23124;DHT22;11731;48.592;8.858;2023-07-31T04:33:21;16.10;99.90
23124;DHT22;11731;48.592;8.858;2023-07-31T04:35:51;15.70;99.90
23124;DHT22;11731;48.592;8.858;2023-07-31T04:38:18;15.60;99.90
23124;DHT22;11731;48.592;8.858;2023-07-31T04:40:45;15.70;99.90
23124;DHT22;11731;48.592;8.858;2023-07-31T04:43:12;15.80;99.90
23124;DHT22;11731;48.592;8.858;2023-07-31T04:45:39;15.90;99.90
23124;DHT22;11731;48.592;8.858;2023-07-31T04:48:06;15.90;99.90
23124;DHT22;11731;48.592;8.858;2023-07-31T04:50:34;15.30;99.90
23124;DHT22;11731;48.592;8.858;2023-07-31T04:53:01;15.20;99.90
23124;DHT22;11731;48.592;8.858;2023-07-31T04:55:27;15.40;99.90
23124;DHT22;11731;48.592;8.858;2023-07-31T04:57:54;15.50;99.90
23124;DHT22;11731;48.592;8.858;2023-07-31T05:00:21;15.60;99.90
23124;DHT22;11731;48.592;8.858;2023-07-31T05:02:48;15.90;99.90
23124;DHT22;11731;48.592;8.858;2023-07-31T05:05:15;15.90;99.90
23124;DHT22;11731;48.592;8.858;2023-07-31T05:07:43;16.10;99.90
23124;DHT22;11731;48.592;8.858;2023-07-31T05:10:10;16.30;99.90
23124;DHT22;11731;48.592;8.858;2023-07-31T05:12:37;16.20;99.90
23124;DHT22;11731;48.592;8.858;2023-07-31T05:15:04;16.30;99.90
23124;DHT22;11731;48.592;8.858;2023-07-31T05:17:31;16.40;99.90
23124;DHT22;11731;48.592;8.858;2023-07-31T05:19:58;16.40;99.90
23124;DHT22;11731;48.592;8.858;2023-07-31T05:22:25;16.30;99.90
23124;DHT22;11731;48.592;8.858;2023-07-31T05:24:53;16.40;99.90
23124;DHT22;11731;48.592;8.858;2023-07-31T05:27:20;16.80;99.90
23124;DHT22;11731;48.592;8.858;2023-07-31T05:29:47;16.90;99.90
23124;DHT22;11731;48.592;8.858;2023-07-31T05:32:14;16.80;99.90
23124;DHT22;11731;48.592;8.858;2023-07-31T05:34:41;17.10;99.90
23124;DHT22;11731;48.592;8.858;2023-07-31T05:37:09;17.30;99.90
23124;DHT22;11731;48.592;8.858;2023-07-31T05:39:36;17.40;99.90
23124;DHT22;11731;48.592;8.858;2023-07-31T05:42:05;17.30;99.90
23124;DHT22;11731;48.592;8.858;2023-07-31T05:44:32;17.10;99.90
23124;DHT22;11731;48.592;8.858;2023-07-31T05:47:02;17.20;99.90
23124;DHT22;11731;48.592;8.858;2023-07-31T05:49:30;17.10;99.90
23124;DHT22;11731;48.592;8.858;2023-07-31T05:51:57;17.00;99.90
23124;DHT22;11731;48.592;8.858;2023-07-31T05:54:24;17.60;99.90
23124;DHT22;11731;48.592;8.858;2023-07-31T05:56:50;17.70;99.90
23124;DHT22;11731;48.592;8.858;2023-07-31T05:59:19;18.00;99.90
23124;DHT22;11731;48.592;8.858;2023-07-31T06:01:45;17.90;99.90
23124;DHT22;11731;48.592;8.858;2023-07-31T06:04:12;18.00;99.90
23124;DHT22;11731;48.592;8.858;2023-07-31T06:06:39;18.00;99.90
23124;DHT22;11731;48.592;8.858;2023-07-31T06:09:06;18.20;99.90
23124;DHT22;11731;48.592;8.858;2023-07-31T06:11:33;18.30;99.90
23124;DHT22;11731;48.592;8.858;2023-07-31T06:14:00;18.20;99.90
23124;DHT22;11731;48.592;8.858;2023-07-31T06:16:28;18.00;99.90
23124;DHT22;11731;48.592;8.858;2023-07-31T06:18:55;18.00;99.90
23124;DHT22;11731;48.592;8.858;2023-07-31T06:21:21;18.40;99.90
23124;DHT22;11731;48.592;8.858;2023-07-31T06:23:48;18.70;99.90
23124;DHT22;11731;48.592;8.858;2023-07-31T06:26:15;18.90;99.90
23124;DHT22;11731;48.592;8.858;2023-07-31T06:28:42;19.20;99.90
23124;DHT22;11731;48.592;8.858;2023-07-31T06:31:09;19.70;99.90
23124;DHT22;11731;48.592;8.858;2023-07-31T06:33:37;20.10;99.90
23124;DHT22;11731;48.592;8.858;2023-07-31T06:36:04;19.90;99.90
23124;DHT22;11731;48.592;8.858;2023-07-31T06:38:31;19.90;99.90
23124;DHT22;11731;48.592;8.858;2023-07-31T06:41:00;20.10;99.90
23124;DHT22;11731;48.592;8.858;2023-07-31T06:43:29;20.10;99.90
23124;DHT22;11731;48.592;8.858;2023-07-31T06:45:56;20.00;99.90
23124;DHT22;11731;48.592;8.858;2023-07-31T06:48:23;19.90;99.90
23124;DHT22;11731;48.592;8.858;2023-07-31T06:50:51;19.80;99.90
23124;DHT22;11731;48.592;8.858;2023-07-31T06:53:18;20.00;99.90
23124;DHT22;11731;48.592;8.858;2023-07-31T06:55:45;19.70;99.90
23124;DHT22;11731;48.592;8.858;2023-07-31T06:58:13;19.50;99.90
23124;DHT22;11731;48.592;8.858;2023-07-31T07:00:40;19.60;99.90
23124;DHT22;11731;48.592;8.858;2023-07-31T07:03:07;19.90;99.90
23124;DHT22;11731;48.592;8.858;2023-07-31T07:05:34;19.80;99.90
23124;DHT22;11731;48.592;8.858;2023-07-31T07:08:02;19.70;99.90
23124;DHT22;11731;48.592;8.858;2023-07-31T07:10:29;19.80;99.90
23124;DHT22;11731;48.592;8.858;2023-07-31T07:12:56;20.20;99.90
23124;DHT22;11731;48.592;8.858;2023-07-31T07:15:23;20.30;99.90
23124;DHT22;11731;48.592;8.858;2023-07-31T07:17:50;20.00;99.90
23124;DHT22;11731;48.592;8.858;2023-07-31T07:20:17;19.90;99.90
23124;DHT22;11731;48.592;8.858;2023-07-31T07:22:45;20.00;99.90
23124;DHT22;11731;48.592;8.858;2023-07-31T07:25:13;19.80;99.90
23124;DHT22;11731;48.592;8.858;2023-07-31T07:27:40;19.70;99.90
23124;DHT22;11731;48.592;8.858;2023-07-31T07:30:07;19.60;99.90
23124;DHT22;11731;48.592;8.858;2023-07-31T07:32:35;19.30;99.90
23124;DHT22;11731;48.592;8.858;2023-07-31T07:35:02;19.50;99.90
23124;DHT22;11731;48.592;8.858;2023-07-31T07:37:28;19.40;99.90
23124;DHT22;11731;48.592;8.858;2023-07-31T07:39:55;19.40;99.90
23124;DHT22;11731;48.592;8.858;2023-07-31T07:42:24;19.50;99.90
23124;DHT22;11731;48.592;8.858;2023-07-31T07:44:51;19.50;99.90
23124;DHT22;11731;48.592;8.858;2023-07-31T07:47:18;19.70;99.90
23124;DHT22;11731;48.592;8.858;2023-07-31T07:49:45;19.90;99.90
23124;DHT22;11731;48.592;8.858;2023-07-31T07:52:11;20.00;99.90
23124;DHT22;11731;48.592;8.858;2023-07-31T07:54:48;20.00;99.90
23124;DHT22;11731;48.592;8.858;2023-07-31T07:57:15;19.90;99.90
23124;DHT22;11731;48.592;8.858;2023-07-31T07:59:43;19.90;99.90
23124;DHT22;11731;48.592;8.858;2023-07-31T08:02:10;20.00;99.90
23124;DHT22;11731;48.592;8.858;2023-07-31T08:04:37;20.20;99.90
23124;DHT22;11731;48.592;8.858;2023-07-31T08:07:04;20.20;99.90
23124;DHT22;11731;48.592;8.858;2023-07-31T08:09:31;20.50;99.90
23124;DHT22;11731;48.592;8.858;2023-07-31T08:11:58;20.60;99.90
23124;DHT22;11731;48.592;8.858;2023-07-31T08:14:28;20.60;99.90
23124;DHT22;11731;48.592;8.858;2023-07-31T08:16:56;20.70;99.90
23124;DHT22;11731;48.592;8.858;2023-07-31T08:19:23;20.90;99.90
23124;DHT22;11731;48.592;8.858;2023-07-31T08:21:50;21.30;99.90
23124;DHT22;11731;48.592;8.858;2023-07-31T08:24:17;21.50;99.90
23124;DHT22;11731;48.592;8.858;2023-07-31T08:26:44;21.90;99.90
23124;DHT22;11731;48.592;8.858;2023-07-31T08:29:10;21.90;99.90
23124;DHT22;11731;48.592;8.858;2023-07-31T08:31:37;22.20;99.90
23124;DHT22;11731;48.592;8.858;2023-07-31T08:34:05;22.00;99.90
23124;DHT22;11731;48.592;8.858;2023-07-31T08:36:32;22.10;99.90
23124;DHT22;11731;48.592;8.858;2023-07-31T08:38:59;21.90;99.90
23124;DHT22;11731;48.592;8.858;2023-07-31T08:41:27;21.70;99.90
23124;DHT22;11731;48.592;8.858;2023-07-31T08:43:55;21.80;99.90
23124;DHT22;11731;48.592;8.858;2023-07-31T08:46:23;21.80;99.90
23124;DHT22;11731;48.592;8.858;2023-07-31T08:48:51;21.80;99.90
23124;DHT22;11731;48.592;8.858;2023-07-31T08:51:20;21.90;99.90
23124;DHT22;11731;48.592;8.858;2023-07-31T08:53:47;22.00;99.90
23124;DHT22;11731;48.592;8.858;2023-07-31T08:56:15;21.90;99.90
23124;DHT22;11731;48.592;8.858;2023-07-31T08:58:43;22.00;99.90
23124;DHT22;11731;48.592;8.858;2023-07-31T09:01:10;22.20;99.90
23124;DHT22;11731;48.592;8.858;2023-07-31T09:03:39;22.20;99.90
23124;DHT22;11731;48.592;8.858;2023-07-31T09:06:06;22.30;99.90
23124;DHT22;11731;48.592;8.858;2023-07-31T09:08:35;22.00;99.90
23124;DHT22;11731;48.592;8.858;2023-07-31T09:11:04;22.20;99.90
23124;DHT22;11731;48.592;8.858;2023-07-31T09:13:32;22.30;99.90
23124;DHT22;11731;48.592;8.858;2023-07-31T09:15:59;22.20;99.90
23124;DHT22;11731;48.592;8.858;2023-07-31T09:18:26;21.90;99.90
23124;DHT22;11731;48.592;8.858;2023-07-31T09:21:03;21.90;99.90
23124;DHT22;11731;48.592;8.858;2023-07-31T09:23:42;21.90;99.90
23124;DHT22;11731;48.592;8.858;2023-07-31T09:26:09;21.70;99.90
23124;DHT22;11731;48.592;8.858;2023-07-31T09:28:36;22.00;99.90
23124;DHT22;11731;48.592;8.858;2023-07-31T09:31:03;22.00;99.90
23124;DHT22;11731;48.592;8.858;2023-07-31T09:33:30;22.00;99.90
23124;DHT22;11731;48.592;8.858;2023-07-31T09:36:13;21.90;99.90
23124;DHT22;11731;48.592;8.858;2023-07-31T09:38:53;21.90;99.90
23124;DHT22;11731;48.592;8.858;2023-07-31T09:41:20;22.00;99.90
23124;DHT22;11731;48.592;8.858;2023-07-31T09:43:53;22.00;99.90
23124;DHT22;11731;48.592;8.858;2023-07-31T09:46:21;21.80;99.90
23124;DHT22;11731;48.592;8.858;2023-07-31T09:48:48;21.90;99.90
23124;DHT22;11731;48.592;8.858;2023-07-31T09:51:15;22.20;99.90
23124;DHT22;11731;48.592;8.858;2023-07-31T09:53:49;21.90;99.90
23124;DHT22;11731;48.592;8.858;2023-07-31T09:56:18;21.90;99.90
23124;DHT22;11731;48.592;8.858;2023-07-31T09:58:48;22.30;99.90
23124;DHT22;11731;48.592;8.858;2023-07-31T10:01:15;22.30;99.90
23124;DHT22;11731;48.592;8.858;2023-07-31T10:03:44;22.10;99.90
23124;DHT22;11731;48.592;8.858;2023-07-31T10:06:12;22.00;99.90
23124;DHT22;11731;48.592;8.858;2023-07-31T10:08:42;22.00;99.90
23124;DHT22;11731;48.592;8.858;2023-07-31T10:11:10;22.10;99.90
23124;DHT22;11731;48.592;8.858;2023-07-31T10:13:41;22.10;99.90
23124;DHT22;11731;48.592;8.858;2023-07-31T10:16:09;22.40;99.90
23124;DHT22;11731;48.592;8.858;2023-07-31T10:18:38;22.70;99.90
23124;DHT22;11731;48.592;8.858;2023-07-31T10:21:05;23.00;99.90
23124;DHT22;11731;48.592;8.858;2023-07-31T10:23:32;23.70;99.90
23124;DHT22;11731;48.592;8.858;2023-07-31T10:26:01;23.80;99.90
23124;DHT22;11731;48.592;8.858;2023-07-31T10:28:29;23.80;99.90
23124;DHT22;11731;48.592;8.858;2023-07-31T10:30:57;24.10;99.90
23124;DHT22;11731;48.592;8.858;2023-07-31T10:33:24;24.00;99.90
23124;DHT22;11731;48.592;8.858;2023-07-31T10:36:14;24.40;99.90
23124;DHT22;11731;48.592;8.858;2023-07-31T10:38:43;24.30;99.90
23124;DHT22;11731;48.592;8.858;2023-07-31T10:41:10;23.90;99.90
23124;DHT22;11731;48.592;8.858;2023-07-31T10:43:38;24.00;99.90
23124;DHT22;11731;48.592;8.858;2023-07-31T10:46:09;24.10;99.90
23124;DHT22;11731;48.592;8.858;2023-07-31T10:48:38;24.30;99.90
23124;DHT22;11731;48.592;8.858;2023-07-31T10:51:08;24.60;99.90
23124;DHT22;11731;48.592;8.858;2023-07-31T10:53:36;24.80;99.90
23124;DHT22;11731;48.592;8.858;2023-07-31T10:56:05;24.80;99.90
23124;DHT22;11731;48.592;8.858;2023-07-31T10:58:32;24.80;99.90
23124;DHT22;11731;48.592;8.858;2023-07-31T11:01:02;25.40;99.90
23124;DHT22;11731;48.592;8.858;2023-07-31T11:03:44;25.80;99.90
23124;DHT22;11731;48.592;8.858;2023-07-31T11:06:12;25.40;99.90
23124;DHT22;11731;48.592;8.858;2023-07-31T11:08:42;24.40;99.90
23124;DHT22;11731;48.592;8.858;2023-07-31T11:11:10;24.30;99.90
23124;DHT22;11731;48.592;8.858;2023-07-31T11:13:42;24.40;99.90
23124;DHT22;11731;48.592;8.858;2023-07-31T11:16:10;24.30;99.90
23124;DHT22;11731;48.592;8.858;2023-07-31T11:18:47;23.90;99.90
23124;DHT22;11731;48.592;8.858;2023-07-31T11:21:20;23.50;99.90
23124;DHT22;11731;48.592;8.858;2023-07-31T11:23:48;23.40;99.90
23124;DHT22;11731;48.592;8.858;2023-07-31T11:26:16;23.20;99.90
23124;DHT22;11731;48.592;8.858;2023-07-31T11:28:46;23.00;99.90
23124;DHT22;11731;48.592;8.858;2023-07-31T11:31:13;22.90;99.90
23124;DHT22;11731;48.592;8.858;2023-07-31T11:33:40;22.80;99.90
23124;DHT22;11731;48.592;8.858;2023-07-31T11:36:15;22.80;99.90
23124;DHT22;11731;48.592;8.858;2023-07-31T11:38:42;22.50;99.90
23124;DHT22;11731;48.592;8.858;2023-07-31T11:41:09;22.60;99.90
23124;DHT22;11731;48.592;8.858;2023-07-31T11:43:36;22.90;99.90
23124;DHT22;11731;48.592;8.858;2023-07-31T11:46:03;23.00;99.90
23124;DHT22;11731;48.592;8.858;2023-07-31T11:48:33;23.10;99.90
23124;DHT22;11731;48.592;8.858;2023-07-31T11:51:03;23.40;99.90
23124;DHT22;11731;48.592;8.858;2023-07-31T11:53:35;23.70;99.90
23124;DHT22;11731;48.592;8.858;2023-07-31T11:56:04;23.40;99.90
23124;DHT22;11731;48.592;8.858;2023-07-31T11:58:31;23.30;99.90
23124;DHT22;11731;48.592;8.858;2023-07-31T12:00:59;23.20;99.90
23124;DHT22;11731;48.592;8.858;2023-07-31T12:03:26;23.20;99.90
23124;DHT22;11731;48.592;8.858;2023-07-31T12:05:53;23.20;99.90
23124;DHT22;11731;48.592;8.858;2023-07-31T12:08:21;23.30;99.90
23124;DHT22;11731;48.592;8.858;2023-07-31T12:10:52;23.50;99.90
23124;DHT22;11731;48.592;8.858;2023-07-31T12:13:21;23.50;99.90
23124;DHT22;11731;48.592;8.858;2023-07-31T12:15:49;23.60;99.90
23124;DHT22;11731;48.592;8.858;2023-07-31T12:18:20;23.50;99.90
23124;DHT22;11731;48.592;8.858;2023-07-31T12:20:48;23.60;99.90
23124;DHT22;11731;48.592;8.858;2023-07-31T12:23:17;23.90;99.90
23124;DHT22;11731;48.592;8.858;2023-07-31T12:25:44;23.90;99.90
23124;DHT22;11731;48.592;8.858;2023-07-31T12:28:13;24.30;99.90
23124;DHT22;11731;48.592;8.858;2023-07-31T12:30:41;25.10;99.90
23124;DHT22;11731;48.592;8.858;2023-07-31T12:33:13;24.80;99.90
23124;DHT22;11731;48.592;8.858;2023-07-31T12:35:44;24.50;99.90
23124;DHT22;11731;48.592;8.858;2023-07-31T12:38:12;24.80;99.90
23124;DHT22;11731;48.592;8.858;2023-07-31T12:40:39;24.60;99.90
23124;DHT22;11731;48.592;8.858;2023-07-31T12:43:07;24.80;99.90
23124;DHT22;11731;48.592;8.858;2023-07-31T12:45:35;25.40;99.90
23124;DHT22;11731;48.592;8.858;2023-07-31T12:48:03;25.90;99.90
23124;DHT22;11731;48.592;8.858;2023-07-31T12:50:29;25.60;99.90
23124;DHT22;11731;48.592;8.858;2023-07-31T12:52:57;25.70;99.90
23124;DHT22;11731;48.592;8.858;2023-07-31T12:55:24;25.40;99.90
23124;DHT22;11731;48.592;8.858;2023-07-31T12:57:51;25.50;99.90
23124;DHT22;11731;48.592;8.858;2023-07-31T13:00:18;26.10;99.90
23124;DHT22;11731;48.592;8.858;2023-07-31T13:02:46;26.50;99.90
23124;DHT22;11731;48.592;8.858;2023-07-31T13:05:13;26.40;99.80
23124;DHT22;11731;48.592;8.858;2023-07-31T13:07:40;26.10;99.90
23124;DHT22;11731;48.592;8.858;2023-07-31T13:10:08;25.60;99.90
23124;DHT22;11731;48.592;8.858;2023-07-31T13:12:34;25.40;99.90
23124;DHT22;11731;48.592;8.858;2023-07-31T13:15:01;25.30;99.90
23124;DHT22;11731;48.592;8.858;2023-07-31T13:17:28;25.40;99.90
23124;DHT22;11731;48.592;8.858;2023-07-31T13:19:57;25.40;99.90
23124;DHT22;11731;48.592;8.858;2023-07-31T13:22:23;25.70;99.90
23124;DHT22;11731;48.592;8.858;2023-07-31T13:24:50;25.60;99.90
23124;DHT22;11731;48.592;8.858;2023-07-31T13:27:17;25.30;99.90
23124;DHT22;11731;48.592;8.858;2023-07-31T13:29:47;25.00;99.40
23124;DHT22;11731;48.592;8.858;2023-07-31T13:32:13;24.40;99.90
23124;DHT22;11731;48.592;8.858;2023-07-31T13:34:40;24.30;99.60
23124;DHT22;11731;48.592;8.858;2023-07-31T13:37:09;24.50;99.90
23124;DHT22;11731;48.592;8.858;2023-07-31T13:39:35;24.40;99.90
23124;DHT22;11731;48.592;8.858;2023-07-31T13:42:03;24.80;99.90
23124;DHT22;11731;48.592;8.858;2023-07-31T13:44:32;25.00;99.90
23124;DHT22;11731;48.592;8.858;2023-07-31T13:46:59;24.80;99.80
23124;DHT22;11731;48.592;8.858;2023-07-31T13:49:25;24.50;99.90
23124;DHT22;11731;48.592;8.858;2023-07-31T13:51:52;24.30;99.90
23124;DHT22;11731;48.592;8.858;2023-07-31T13:54:21;24.50;99.90
23124;DHT22;11731;48.592;8.858;2023-07-31T13:56:48;25.00;99.90
23124;DHT22;11731;48.592;8.858;2023-07-31T13:59:15;24.70;99.30
23124;DHT22;11731;48.592;8.858;2023-07-31T14:01:43;24.80;99.10
23124;DHT22;11731;48.592;8.858;2023-07-31T14:04:10;24.70;99.10
23124;DHT22;11731;48.592;8.858;2023-07-31T14:06:37;24.70;99.50
23124;DHT22;11731;48.592;8.858;2023-07-31T14:09:04;24.50;99.30
23124;DHT22;11731;48.592;8.858;2023-07-31T14:11:33;24.40;99.80
23124;DHT22;11731;48.592;8.858;2023-07-31T14:14:00;24.50;99.90
23124;DHT22;11731;48.592;8.858;2023-07-31T14:16:28;24.50;99.20
23124;DHT22;11731;48.592;8.858;2023-07-31T14:18:55;24.40;98.90
23124;DHT22;11731;48.592;8.858;2023-07-31T14:21:24;24.40;98.90
23124;DHT22;11731;48.592;8.858;2023-07-31T14:23:51;24.70;98.40
23124;DHT22;11731;48.592;8.858;2023-07-31T14:26:18;24.80;99.20
23124;DHT22;11731;48.592;8.858;2023-07-31T14:28:47;25.10;99.00
23124;DHT22;11731;48.592;8.858;2023-07-31T14:31:14;25.10;99.00
23124;DHT22;11731;48.592;8.858;2023-07-31T14:33:41;25.40;98.90
23124;DHT22;11731;48.592;8.858;2023-07-31T14:36:07;25.80;99.30
23124;DHT22;11731;48.592;8.858;2023-07-31T14:38:34;26.20;98.50
23124;DHT22;11731;48.592;8.858;2023-07-31T14:41:01;25.90;98.60
23124;DHT22;11731;48.592;8.858;2023-07-31T14:43:28;25.40;98.50
23124;DHT22;11731;48.592;8.858;2023-07-31T14:45:57;25.10;99.80
23124;DHT22;11731;48.592;8.858;2023-07-31T14:48:25;25.30;98.80
23124;DHT22;11731;48.592;8.858;2023-07-31T14:50:52;25.00;98.80
23124;DHT22;11731;48.592;8.858;2023-07-31T14:53:19;25.00;99.20
23124;DHT22;11731;48.592;8.858;2023-07-31T14:55:46;25.10;99.60
23124;DHT22;11731;48.592;8.858;2023-07-31T14:58:13;24.90;99.80
23124;DHT22;11731;48.592;8.858;2023-07-31T15:00:50;25.10;99.30
23124;DHT22;11731;48.592;8.858;2023-07-31T15:03:19;25.20;99.80
23124;DHT22;11731;48.592;8.858;2023-07-31T15:05:45;25.10;99.40
23124;DHT22;11731;48.592;8.858;2023-07-31T15:08:12;24.80;99.60
23124;DHT22;11731;48.592;8.858;2023-07-31T15:10:39;24.60;99.50
23124;DHT22;11731;48.592;8.858;2023-07-31T15:13:06;24.50;99.70
23124;DHT22;11731;48.592;8.858;2023-07-31T15:15:33;24.30;99.80
23124;DHT22;11731;48.592;8.858;2023-07-31T15:18:00;24.20;99.60
23124;DHT22;11731;48.592;8.858;2023-07-31T15:20:28;24.50;99.80
23124;DHT22;11731;48.592;8.858;2023-07-31T15:22:55;24.80;99.00
23124;DHT22;11731;48.592;8.858;2023-07-31T15:25:23;24.40;99.30
23124;DHT22;11731;48.592;8.858;2023-07-31T15:27:50;24.30;99.40
23124;DHT22;11731;48.592;8.858;2023-07-31T15:30:16;24.30;99.70
23124;DHT22;11731;48.592;8.858;2023-07-31T15:32:44;24.50;99.40
23124;DHT22;11731;48.592;8.858;2023-07-31T15:35:14;24.60;99.40